< < Back
Terminal Aerodrome Forecast


Current Version              Previous Versions:   1  2  3  4  5  6  7  8  9  

Terminal Aerodrome Forecast

975
FTUS42 KFFC 280700 AAA
TAFATL
TAF AMD
KATL 280732Z 2808/2912 25007KT P6SM FEW060 BKN150
     FM281000 26008KT P6SM VCSH SCT035 BKN060
      TEMPO 2811/2815 5SM -SHRA BKN035
     FM281500 29010G18KT P6SM VCSH BKN040
     FM281900 31012G20KT P6SM SCT050
     FM290100 32010KT P6SM SCT100
     FM290900 32007KT P6SM SKC=

Latest METAR

192
SAUS70 KWBC 280800 RRG
MTRATL
METAR KATL 280752Z 24006KT 10SM FEW060 OVC150 26/22 A2994 RMK AO2 SLP124
T02610222 $


USA.gov is the U.S. government's official web portal to all federal, state and local government web resources and services.